Montauk — 9HHE8 — position and weather

sailwx.info

Track history (hours):
 
Tides and Currents Weather Stations Pressure Air Temp Water Temp Dewpoint Dewpoint Depression Visibility Wind Speed Wind Dir Waves Ship Positions

Montauk

Last reported at 2017-Feb-21 17:15 UTC. Time now 2017-Feb-22 08:28 UTC.
Position S 04°45' E 011°49'.

Length 106 m; draft 6.4 m.

Type: Tanker. MMSI: 215978000.

Date/timePositionNaut miles runAvg speedWind from/ knotsBaromVisibWave heightAir tempDewpointWater temp
2017-Feb-21 17:15S 04°45' E 011°49'0 0.0
2017-Feb-21 13:15S 04°45' E 011°49'0 0.0
2017-Feb-21 12:24S 04°45' E 011°49'0 0.0
2017-Feb-21 11:33S 04°45' E 011°49'0 0.1
2017-Feb-21 10:09S 04°45' E 011°49'0 0.1
2017-Feb-21 09:30S 04°45' E 011°49'  
2017-Feb-18 11:09S 04°56' E 011°33'5 7.8
2017-Feb-18 10:33S 04°57' E 011°28'8 7.8
2017-Feb-18 09:33S 04°58' E 011°21'8 7.7
2017-Feb-18 08:33S 04°57' E 011°13'8 7.7
2017-Feb-18 07:33S 04°57' E 011°05'8 7.6
2017-Feb-18 06:32S 04°56' E 010°57'21 0.9
2017-Feb-17 07:27S 04°48' E 010°38'2 1.9
2017-Feb-17 06:07S 04°50' E 010°37'1 1.8
2017-Feb-17 05:33S 04°51' E 010°37'2 1.8
2017-Feb-17 04:33S 04°53' E 010°36'5 1.4
2017-Feb-17 00:33S 04°58' E 010°35'4 1.7
2017-Feb-16 22:29S 05°02' E 010°34'2 2.6
2017-Feb-16 21:33S 05°04' E 010°33'2 2.2
2017-Feb-16 20:33S 05°06' E 010°33'43 1.7
2017-Feb-15 19:33S 04°60' E 011°15'7 7.3
2017-Feb-15 18:33S 04°59' E 011°22'11 0.5
2017-Feb-14 20:20S 04°57' E 011°33'6 7.9
2017-Feb-14 19:34S 05°02' E 011°30'8 8.0
2017-Feb-14 18:33S 05°07' E 011°23'8 8.0
2017-Feb-14 17:33S 05°11' E 011°16'8 8.0
2017-Feb-14 16:32S 05°19' E 011°13'9 8.6
2017-Feb-14 15:32S 05°27' E 011°11'3 0.2
2017-Feb-14 00:07S 05°25' E 011°09'4 7.7
2017-Feb-13 23:33S 05°20' E 011°09'8 7.9
2017-Feb-13 22:33S 05°12' E 011°10'8 8.0
2017-Feb-13 21:33S 05°04' E 011°09'1 1.2
2017-Feb-13 20:33S 05°03' E 011°10'0 0.2
2017-Feb-13 19:34S 05°03' E 011°10'0 0.3
2017-Feb-13 18:33S 05°03' E 011°10'1 0.5
2017-Feb-13 17:33S 05°03' E 011°11'1 0.6
2017-Feb-13 16:33S 05°03' E 011°11'1 0.6
2017-Feb-13 15:33S 05°03' E 011°12'1 0.8
2017-Feb-13 14:33S 05°04' E 011°13'1 0.9
2017-Feb-13 13:33S 05°04' E 011°13'1 0.9
2017-Feb-13 12:30S 05°04' E 011°14'1 0.9
2017-Feb-13 11:33S 05°04' E 011°15'1 0.8
2017-Feb-13 10:33S 05°04' E 011°16'2 2.1
2017-Feb-13 09:33S 05°05' E 011°15'1 1.5
2017-Feb-13 08:34S 05°04' E 011°15'3 2.5
2017-Feb-13 07:33S 05°01' E 011°16'3 2.7
2017-Feb-13 06:32S 04°59' E 011°17'1 0.7
2017-Feb-13 05:33S 04°58' E 011°18'0 0.4
2017-Feb-13 04:33S 04°59' E 011°18'0 0.5
2017-Feb-13 03:32S 04°59' E 011°18'0 0.4
2017-Feb-13 02:33S 04°59' E 011°19'0 0.5
2017-Feb-13 01:33S 04°60' E 011°19'0 0.5
2017-Feb-13 00:33S 04°60' E 011°20'7 7.3
2017-Feb-12 23:32S 04°56' E 011°26'11 8.1
2017-Feb-12 22:10S 04°51' E 011°36'5 8.1
2017-Feb-12 21:33S 04°49' E 011°40'8 7.7
2017-Feb-12 20:33S 04°46' E 011°47'2 1.7
2017-Feb-12 19:20S 04°45' E 011°49'0 0.0
2017-Feb-11 21:31S 04°45' E 011°50'0 0.0
2017-Feb-11 20:31S 04°45' E 011°50'  
Track history (hours):
 
Tides and Currents Weather Stations Pressure Air Temp Water Temp Dewpoint Dewpoint Depression Visibility Wind Speed Wind Dir Waves Ship Positions

Montauk

Last reported at 2017-Feb-21 17:15 UTC. Time now 2017-Feb-22 08:28 UTC.
Position S 04°45' E 011°49'.

Length 106 m; draft 6.4 m.

Type: Tanker. MMSI: 215978000.

Date/timePositionNaut miles runAvg speedWind from/ knotsBaromVisibWave heightAir tempDewpointWater temp
2017-Feb-21 17:15S 04°45' E 011°49'0 0.0
2017-Feb-21 13:15S 04°45' E 011°49'0 0.0
2017-Feb-21 12:24S 04°45' E 011°49'0 0.0
2017-Feb-21 11:33S 04°45' E 011°49'0 0.1
2017-Feb-21 10:09S 04°45' E 011°49'0 0.1
2017-Feb-21 09:30S 04°45' E 011°49'  
2017-Feb-18 11:09S 04°56' E 011°33'5 7.8
2017-Feb-18 10:33S 04°57' E 011°28'8 7.8
2017-Feb-18 09:33S 04°58' E 011°21'8 7.7
2017-Feb-18 08:33S 04°57' E 011°13'8 7.7
2017-Feb-18 07:33S 04°57' E 011°05'8 7.6
2017-Feb-18 06:32S 04°56' E 010°57'21 0.9
2017-Feb-17 07:27S 04°48' E 010°38'2 1.9
2017-Feb-17 06:07S 04°50' E 010°37'1 1.8
2017-Feb-17 05:33S 04°51' E 010°37'2 1.8
2017-Feb-17 04:33S 04°53' E 010°36'5 1.4
2017-Feb-17 00:33S 04°58' E 010°35'4 1.7
2017-Feb-16 22:29S 05°02' E 010°34'2 2.6
2017-Feb-16 21:33S 05°04' E 010°33'2 2.2
2017-Feb-16 20:33S 05°06' E 010°33'43 1.7
2017-Feb-15 19:33S 04°60' E 011°15'7 7.3
2017-Feb-15 18:33S 04°59' E 011°22'11 0.5
2017-Feb-14 20:20S 04°57' E 011°33'6 7.9
2017-Feb-14 19:34S 05°02' E 011°30'8 8.0
2017-Feb-14 18:33S 05°07' E 011°23'8 8.0
2017-Feb-14 17:33S 05°11' E 011°16'8 8.0
2017-Feb-14 16:32S 05°19' E 011°13'9 8.6
2017-Feb-14 15:32S 05°27' E 011°11'3 0.2
2017-Feb-14 00:07S 05°25' E 011°09'4 7.7
2017-Feb-13 23:33S 05°20' E 011°09'8 7.9
2017-Feb-13 22:33S 05°12' E 011°10'8 8.0
2017-Feb-13 21:33S 05°04' E 011°09'1 1.2
2017-Feb-13 20:33S 05°03' E 011°10'0 0.2
2017-Feb-13 19:34S 05°03' E 011°10'0 0.3
2017-Feb-13 18:33S 05°03' E 011°10'1 0.5
2017-Feb-13 17:33S 05°03' E 011°11'1 0.6
2017-Feb-13 16:33S 05°03' E 011°11'1 0.6
2017-Feb-13 15:33S 05°03' E 011°12'1 0.8
2017-Feb-13 14:33S 05°04' E 011°13'1 0.9
2017-Feb-13 13:33S 05°04' E 011°13'1 0.9
2017-Feb-13 12:30S 05°04' E 011°14'1 0.9
2017-Feb-13 11:33S 05°04' E 011°15'1 0.8
2017-Feb-13 10:33S 05°04' E 011°16'2 2.1
2017-Feb-13 09:33S 05°05' E 011°15'1 1.5
2017-Feb-13 08:34S 05°04' E 011°15'3 2.5
2017-Feb-13 07:33S 05°01' E 011°16'3 2.7
2017-Feb-13 06:32S 04°59' E 011°17'1 0.7
2017-Feb-13 05:33S 04°58' E 011°18'0 0.4
2017-Feb-13 04:33S 04°59' E 011°18'0 0.5
2017-Feb-13 03:32S 04°59' E 011°18'0 0.4
2017-Feb-13 02:33S 04°59' E 011°19'0 0.5
2017-Feb-13 01:33S 04°60' E 011°19'0 0.5
2017-Feb-13 00:33S 04°60' E 011°20'7 7.3
2017-Feb-12 23:32S 04°56' E 011°26'11 8.1
2017-Feb-12 22:10S 04°51' E 011°36'5 8.1
2017-Feb-12 21:33S 04°49' E 011°40'8 7.7
2017-Feb-12 20:33S 04°46' E 011°47'2 1.7
2017-Feb-12 19:20S 04°45' E 011°49'0 0.0
2017-Feb-11 21:31S 04°45' E 011°50'0 0.0
2017-Feb-11 20:31S 04°45' E 011°50'  

Dump ship's entire track history